Time;durP1;ratioP1;P1;durP2;ratioP2;P2;SDS_P1;SDS_P2;PMS_P1;PMS_P2;Temp;Humidity;BMP_temperature;BMP_pressure;BME280_temperature;BME280_humidity;BME280_pressure;Samples;Min_cycle;Max_cycle;Signal;HPM_P1;HPM_P2
2022/05/23 00:01:44;;;;;;;4.97;2.43;;;;;;;11.60;32.02;98266.03;5015541;28;20080;-68
2022/05/23 00:04:10;;;;;;;5.13;2.00;;;;;;;11.49;32.34;98259.47;5014956;28;20132;-70
2022/05/23 00:06:36;;;;;;;4.20;1.90;;;;;;;11.61;32.29;98262.34;5014764;28;20506;-70
2022/05/23 00:09:04;;;;;;;4.90;2.70;;;;;;;11.41;32.44;98241.00;5032397;28;20449;-70
2022/05/23 00:11:30;;;;;;;9.07;2.70;;;;;;;11.40;32.57;98267.78;5032172;28;20041;-71
2022/05/23 00:13:56;;;;;;;7.30;2.60;;;;;;;11.33;33.12;98266.94;5014417;28;20045;-71
2022/05/23 00:16:26;;;;;;;7.17;3.13;;;;;;;11.56;33.09;98268.28;4977230;28;20050;-70
2022/05/23 00:18:51;;;;;;;6.63;3.40;;;;;;;11.30;32.94;98273.44;5010533;28;20055;-72
2022/05/23 00:21:18;;;;;;;7.03;2.90;;;;;;;11.28;32.98;98246.28;4989861;28;20060;-70
2022/05/23 00:23:44;;;;;;;6.00;3.10;;;;;;;11.35;32.95;98270.19;5011575;28;20088;-71
2022/05/23 00:26:16;;;;;;;7.23;3.43;;;;;;;11.59;32.68;98277.72;4992951;28;20123;-70
2022/05/23 00:28:41;;;;;;;7.07;3.60;;;;;;;11.30;33.16;98277.97;5011947;28;20111;-70
2022/05/23 00:31:08;;;;;;;9.63;3.30;;;;;;;11.33;33.12;98282.88;4978346;28;20566;-71
2022/05/23 00:36:22;;;;;;;7.90;3.17;;;;;;;11.28;33.32;98275.50;5009213;28;20042;-69
2022/05/23 00:38:48;;;;;;;9.00;3.47;;;;;;;11.02;33.34;98246.09;4993610;28;20508;-70
2022/05/23 00:44:09;;;;;;;9.30;3.67;;;;;;;11.15;33.63;98275.41;4995418;28;20080;-71
2022/05/23 00:46:35;;;;;;;6.43;3.00;;;;;;;11.02;33.62;98253.25;4993536;28;20096;-70
2022/05/23 00:49:03;;;;;;;4.40;2.70;;;;;;;11.34;33.77;98287.19;4994531;28;20049;-70
2022/05/23 00:51:30;;;;;;;9.17;3.20;;;;;;;11.32;33.84;98276.75;5010493;28;20487;-71
2022/05/23 00:53:59;;;;;;;6.43;3.60;;;;;;;11.33;33.59;98277.56;4994426;28;20052;-70
2022/05/23 00:56:30;;;;;;;5.77;2.90;;;;;;;11.26;33.77;98263.41;4993928;28;20589;-70
2022/05/23 00:58:57;;;;;;;;;;;;;;;11.55;33.42;98285.25;5012167;28;20506;-71
2022/05/23 01:01:26;;;;;;;6.43;2.83;;;;;;;11.15;33.77;98264.78;5009265;28;19917;-71
2022/05/23 01:03:52;;;;;;;4.37;2.47;;;;;;;10.90;33.83;98254.81;4993799;28;20115;-71
2022/05/23 01:06:18;;;;;;;5.23;2.63;;;;;;;10.99;34.04;98286.34;4978272;28;20132;-71
2022/05/23 01:08:49;;;;;;;6.07;2.40;;;;;;;11.12;34.07;98291.75;4978852;28;20048;-71
2022/05/23 01:11:15;;;;;;;9.10;2.93;;;;;;;11.00;34.24;98295.13;5010493;28;20041;-70
2022/05/23 01:13:42;;;;;;;4.40;2.60;;;;;;;11.11;34.31;98294.59;4993434;28;20334;-70
2022/05/23 01:16:11;;;;;;;3.83;2.33;;;;;;;11.14;34.41;98297.69;4994078;28;20060;-71
2022/05/23 01:18:42;;;;;;;4.43;2.47;;;;;;;10.96;34.10;98297.31;5010798;28;20045;-72
2022/05/23 01:21:13;;;;;;;8.40;2.43;;;;;;;11.13;34.32;98282.75;5013458;28;20483;-71
2022/05/23 01:23:52;;;;;;;4.07;2.33;;;;;;;11.12;34.10;98257.19;5028632;28;20174;-71
2022/05/23 01:26:22;;;;;;;7.17;2.60;;;;;;;10.89;34.41;98279.69;5027248;28;20083;-71
2022/05/23 01:28:58;;;;;;;5.97;3.63;;;;;;;10.92;34.29;98282.81;5011804;28;20037;-71
2022/05/23 01:31:45;;;;;;;3.70;2.27;;;;;;;10.95;34.63;98295.69;4989903;28;20046;-71
2022/05/23 01:34:18;;;;;;;5.97;2.37;;;;;;;10.94;34.44;98274.63;5012971;28;20052;-73
2022/05/23 01:36:54;;;;;;;3.47;2.20;;;;;;;10.99;34.41;98298.78;5013242;28;20056;-72
2022/05/23 01:39:23;;;;;;;4.40;2.23;;;;;;;11.13;34.37;98287.25;5011887;28;20041;-72
2022/05/23 01:41:50;;;;;;;2.77;2.00;;;;;;;10.97;34.36;98291.03;5014329;28;20098;-72
2022/05/23 01:44:16;;;;;;;6.37;2.00;;;;;;;11.03;34.10;98302.69;4994539;28;20124;-70
2022/05/23 01:46:52;;;;;;;3.23;2.30;;;;;;;11.10;34.08;98293.75;4979079;28;20046;-68
2022/05/23 01:49:25;;;;;;;5.17;2.40;;;;;;;11.19;34.20;98302.41;5007849;28;20045;-70
2022/05/23 01:51:51;;;;;;;5.90;2.40;;;;;;;11.12;34.24;98302.38;5008546;28;20082;-72
2022/05/23 01:54:22;;;;;;;7.00;2.40;;;;;;;11.18;34.02;98298.09;4977977;28;20084;-70
2022/05/23 01:56:50;;;;;;;5.17;2.13;;;;;;;11.21;33.94;98295.09;5008864;28;20065;-72
2022/05/23 02:02:07;;;;;;;2.90;2.10;;;;;;;11.32;33.66;98307.81;4994798;28;20490;-69
2022/05/23 02:04:37;;;;;;;5.88;2.38;;;;;;;11.37;33.54;98302.72;5008833;28;20076;-70
2022/05/23 02:07:05;;;;;;;5.70;2.60;;;;;;;11.47;33.78;98308.53;4976537;28;20129;-70
2022/05/23 02:09:34;;;;;;;6.97;3.10;;;;;;;11.42;33.69;98308.28;4977701;28;20140;-70
2022/05/23 02:12:08;;;;;;;4.67;2.30;;;;;;;11.54;33.61;98317.34;4992303;28;20096;-70
2022/05/23 02:14:34;;;;;;;2.50;2.27;;;;;;;11.47;33.64;98303.22;4992873;28;20065;-68
2022/05/23 02:17:02;;;;;;;4.13;2.37;;;;;;;11.43;33.51;98305.44;5008950;28;20038;-68
2022/05/23 02:19:32;;;;;;;5.03;2.60;;;;;;;11.68;33.38;98300.50;4975670;28;20164;-67
2022/05/23 02:22:09;;;;;;;;;;;;;;;11.92;33.03;98310.63;4993787;28;20042;-69
2022/05/23 02:24:35;;;;;;;3.10;2.57;;;;;;;11.46;33.30;98290.91;4992184;28;19994;-69
2022/05/23 02:27:01;;;;;;;2.80;2.10;;;;;;;11.54;33.26;98307.56;4992148;28;20080;-70
2022/05/23 02:29:38;;;;;;;3.43;2.47;;;;;;;11.57;33.27;98303.66;4979230;28;20030;-66
2022/05/23 02:32:05;;;;;;;7.20;2.70;;;;;;;11.72;33.02;98315.84;4992875;28;20484;-70
2022/05/23 02:34:31;;;;;;;5.90;2.57;;;;;;;11.77;32.64;98312.59;4993109;28;20136;-68
2022/05/23 02:36:57;;;;;;;5.13;2.50;;;;;;;11.83;32.64;98311.81;4975415;28;20121;-73
2022/05/23 02:39:39;;;;;;;10.03;2.70;;;;;;;11.80;32.55;98313.03;4993777;28;20046;-70
2022/05/23 02:42:07;;;;;;;5.50;3.50;;;;;;;12.20;32.09;98314.00;4991528;28;20391;-72
2022/05/23 02:44:35;;;;;;;6.17;2.90;;;;;;;12.16;31.92;98310.09;4976552;28;20054;-71
2022/05/23 02:47:03;;;;;;;6.90;2.97;;;;;;;12.15;31.82;98315.63;5007904;28;20069;-69
2022/05/23 02:49:31;;;;;;;6.60;2.93;;;;;;;12.19;31.67;98317.69;4975678;28;20038;-70
2022/05/23 02:51:58;;;;;;;5.97;2.87;;;;;;;12.24;31.56;98323.22;4991718;28;20057;-70
2022/05/23 02:54:29;;;;;;;7.13;2.60;;;;;;;12.29;31.21;98320.78;5007550;28;20057;-70
2022/05/23 02:56:59;;;;;;;8.53;3.10;;;;;;;12.36;31.05;98323.47;4991737;28;20050;-71
2022/05/23 02:59:27;;;;;;;9.97;3.20;;;;;;;12.24;31.01;98293.13;4991872;28;20184;-72
2022/05/23 03:04:46;;;;;;;10.00;2.87;;;;;;;12.50;30.54;98330.47;4994544;28;20050;-71
2022/05/23 03:07:15;;;;;;;5.43;2.93;;;;;;;12.53;30.40;98317.53;5008274;28;20073;-70
2022/05/23 03:09:46;;;;;;;3.10;2.20;;;;;;;12.55;30.29;98331.50;4992314;28;20049;-70
2022/05/23 03:12:17;;;;;;;6.72;2.60;;;;;;;12.69;30.33;98332.31;4991814;28;20072;-70
2022/05/23 03:14:43;;;;;;;10.70;2.70;;;;;;;12.70;30.23;98328.66;4975402;28;20128;-69
2022/05/23 03:17:09;;;;;;;9.95;2.72;;;;;;;12.54;30.39;98303.22;4991213;28;20160;-70
2022/05/23 03:19:39;;;;;;;7.55;2.75;;;;;;;12.66;30.27;98287.44;4991828;28;20179;-72
2022/05/23 03:27:45;;;;;;;4.10;2.40;;;;;;;13.01;29.67;98319.06;4999910;28;20038;-70
2022/05/23 03:30:17;;;;;;;6.70;2.63;;;;;;;13.19;29.31;98327.25;4988254;28;20144;-71
2022/05/23 03:32:57;;;;;;;4.30;2.38;;;;;;;13.44;29.11;98328.25;5019541;28;20045;-71
2022/05/23 03:35:29;;;;;;;5.32;2.42;;;;;;;13.38;29.42;98328.25;5009142;28;20108;-72
2022/05/23 03:37:59;;;;;;;3.30;2.15;;;;;;;13.37;29.04;98329.28;5015567;28;20069;-75
2022/05/23 03:40:26;;;;;;;6.90;2.60;;;;;;;13.35;28.98;98332.16;5015117;28;20045;-73
2022/05/23 03:42:56;;;;;;;4.47;2.65;;;;;;;13.46;28.89;98341.38;4999414;28;20041;-72
2022/05/23 03:45:22;;;;;;;7.70;2.97;;;;;;;13.65;28.65;98342.38;5014553;28;20085;-75
2022/05/23 03:47:52;;;;;;;5.97;2.70;;;;;;;13.83;28.30;98342.53;5015087;28;20045;-74
2022/05/23 03:50:38;;;;;;;6.38;2.92;;;;;;;13.75;27.97;98321.41;4999136;28;20049;-72
2022/05/23 03:53:06;;;;;;;5.43;3.00;;;;;;;13.73;27.81;98334.16;5016819;28;20072;-70
2022/05/23 03:55:36;;;;;;;5.50;2.78;;;;;;;13.79;27.90;98338.66;5014557;28;20057;-72
2022/05/23 03:58:11;;;;;;;4.07;2.60;;;;;;;13.80;27.75;98338.44;5031180;28;20056;-69
2022/05/23 04:00:39;;;;;;;5.75;2.78;;;;;;;13.89;27.85;98333.69;5014437;28;20047;-71
2022/05/23 04:03:05;;;;;;;6.78;2.88;;;;;;;13.91;27.63;98335.13;4997842;28;20186;-71
2022/05/23 04:05:32;;;;;;;4.65;2.40;;;;;;;13.84;27.62;98320.97;5014641;28;20466;-71
2022/05/23 04:08:06;;;;;;;8.27;2.33;;;;;;;14.03;27.48;98341.44;5000153;28;20136;-71
2022/05/23 04:10:39;;;;;;;5.30;2.60;;;;;;;14.13;27.15;98331.13;5030682;28;20044;-71
2022/05/23 04:13:07;;;;;;;6.78;2.40;;;;;;;14.06;27.40;98340.19;5030184;28;20061;-73
2022/05/23 04:15:33;;;;;;;5.40;2.60;;;;;;;14.06;26.88;98338.34;5014585;28;20119;-71
2022/05/23 04:17:59;;;;;;;4.53;2.30;;;;;;;14.13;26.58;98336.47;4997938;28;20427;-71
2022/05/23 04:20:26;;;;;;;5.03;2.38;;;;;;;14.15;26.65;98328.22;4997988;28;20088;-72
2022/05/23 04:23:03;;;;;;;3.72;2.25;;;;;;;14.22;26.58;98337.06;5014775;28;20052;-70
2022/05/23 04:25:29;;;;;;;6.35;2.15;;;;;;;14.23;26.79;98331.50;4998239;28;20076;-71
2022/05/23 04:27:55;;;;;;;3.78;1.98;;;;;;;14.17;26.48;98299.47;4998041;28;20584;-70
2022/05/23 04:37:17;;;;;;;4.57;1.83;;;;;;;14.37;26.00;98311.75;5017430;28;20099;-70
2022/05/23 04:39:48;;;;;;;3.78;1.75;;;;;;;14.51;25.72;98325.84;4998651;28;20049;-71
2022/05/23 04:42:14;;;;;;;3.42;1.80;;;;;;;14.58;25.59;98316.75;4997045;28;20041;-71
2022/05/23 04:44:42;;;;;;;5.65;2.55;;;;;;;14.23;26.24;98246.06;5013326;28;20413;-71
2022/05/23 04:49:54;;;;;;;7.82;1.95;;;;;;;14.58;25.99;98310.56;4999670;28;20041;-71
2022/05/23 04:52:42;;;;;;;3.83;2.10;;;;;;;14.73;25.48;98308.44;5016304;28;20057;-69
2022/05/23 04:55:09;;;;;;;5.47;1.90;;;;;;;14.84;25.56;98315.72;4996882;28;20060;-71
2022/05/23 04:57:38;;;;;;;8.18;1.85;;;;;;;15.01;25.12;98315.00;4997988;28;20061;-70
2022/05/23 05:00:09;;;;;;;6.80;2.30;;;;;;;15.24;24.92;98319.72;5013902;28;20037;-69
2022/05/23 05:02:42;;;;;;;6.30;2.50;;;;;;;15.13;24.82;98317.75;5013963;28;20045;-71
2022/05/23 05:05:09;;;;;;;6.57;2.50;;;;;;;15.17;24.77;98314.47;5012618;28;20045;-72
2022/05/23 05:07:49;;;;;;;6.23;2.50;;;;;;;15.14;24.83;98314.88;4997715;28;20042;-72
2022/05/23 05:10:15;;;;;;;11.27;2.50;;;;;;;15.31;24.92;98317.81;5011462;28;20123;-72
2022/05/23 05:12:40;;;;;;;5.13;2.60;;;;;;;15.45;24.76;98314.03;5010940;28;20045;-72
2022/05/23 05:15:09;;;;;;;6.70;2.60;;;;;;;15.80;24.22;98307.06;5011727;28;20137;-73
2022/05/23 05:17:35;;;;;;;9.75;2.50;;;;;;;16.19;23.47;98313.78;4995540;28;20148;-71
2022/05/23 05:20:05;;;;;;;6.50;2.55;;;;;;;16.67;22.91;98309.22;5012109;28;20045;-71
2022/05/23 05:22:51;;;;;;;11.32;3.28;;;;;;;17.09;22.46;98304.66;5012475;28;20049;-70
2022/05/23 05:25:40;;;;;;;8.65;2.80;;;;;;;17.61;22.12;98301.06;5029275;28;20069;-70
2022/05/23 05:28:08;;;;;;;9.63;3.20;;;;;;;17.76;21.78;98299.53;5012973;28;20045;-70
2022/05/23 05:30:44;;;;;;;3.53;2.67;;;;;;;18.14;21.23;98310.53;5012770;28;20151;-70
2022/05/23 05:33:15;;;;;;;10.88;2.78;;;;;;;18.25;21.03;98300.84;5012334;28;20585;-70
2022/05/23 05:35:57;;;;;;;3.88;2.65;;;;;;;18.22;20.87;98282.50;4995964;28;20053;-72
2022/05/23 05:39:06;;;;;;;12.38;2.90;;;;;;;18.31;20.90;98302.56;5012191;28;20048;-75
2022/05/23 05:42:00;;;;;;;14.80;3.28;;;;;;;18.11;20.91;98308.31;4997269;28;20053;-71
2022/05/23 05:44:36;;;;;;;6.80;2.42;;;;;;;17.68;21.19;98277.63;4991543;28;20060;-70
2022/05/23 05:47:11;;;;;;;8.63;2.78;;;;;;;17.80;21.14;98289.16;5011989;28;20048;-71
2022/05/23 05:49:40;;;;;;;7.25;2.90;;;;;;;17.63;21.24;98286.38;5012438;28;20049;-67
2022/05/23 05:52:12;;;;;;;5.72;2.55;;;;;;;17.41;21.24;98290.66;5012986;28;20038;-68
2022/05/23 05:54:59;;;;;;;6.28;2.55;;;;;;;17.21;21.70;98287.50;5028363;28;20136;-68
2022/05/23 05:57:25;;;;;;;4.78;2.60;;;;;;;17.21;21.79;98284.00;5013026;28;20034;-69
2022/05/23 05:59:55;;;;;;;7.18;2.50;;;;;;;17.07;22.21;98291.47;5028774;28;20131;-68
2022/05/23 06:02:23;;;;;;;7.03;2.85;;;;;;;17.04;22.11;98296.47;5012915;28;20704;-69
2022/05/23 06:04:50;;;;;;;12.43;2.42;;;;;;;17.12;22.05;98288.09;5027694;28;20049;-69
2022/05/23 06:12:56;;;;;;;4.32;2.30;;;;;;;17.48;21.29;98288.69;4987739;28;20126;-70
2022/05/23 06:15:57;;;;;;;3.28;2.25;;;;;;;17.64;20.86;98282.63;4977071;28;20046;-68
2022/05/23 06:18:26;;;;;;;3.63;2.20;;;;;;;17.77;20.64;98250.16;4988831;28;20045;-69
2022/05/23 06:20:52;;;;;;;3.25;2.00;;;;;;;17.99;20.92;98282.56;4988761;28;20456;-68
2022/05/23 06:23:19;;;;;;;3.53;2.60;;;;;;;18.02;20.35;98276.72;4971480;28;20080;-68
2022/05/23 06:25:55;;;;;;;7.40;2.47;;;;;;;18.17;20.38;98277.03;4971645;28;20050;-69
2022/05/23 06:28:44;;;;;;;4.70;2.30;;;;;;;18.29;20.07;98285.84;4986779;28;20057;-68
2022/05/23 06:31:11;;;;;;;5.57;1.85;;;;;;;18.17;20.33;98264.38;4986606;28;20511;-69
2022/05/23 06:33:38;;;;;;;6.80;2.03;;;;;;;17.94;20.36;98267.13;4970808;28;20035;-68
2022/05/23 06:36:10;;;;;;;5.00;2.15;;;;;;;17.97;20.48;98252.44;4986534;28;20476;-69
2022/05/23 06:38:37;;;;;;;6.18;2.00;;;;;;;17.69;20.94;98234.41;4987214;28;20510;-68
2022/05/23 06:41:07;;;;;;;4.07;1.83;;;;;;;17.81;20.57;98245.13;4987639;28;20038;-68
2022/05/23 06:43:51;;;;;;;10.23;2.10;;;;;;;18.04;20.25;98269.22;4988020;28;20034;-68
2022/05/23 06:46:35;;;;;;;2.85;1.92;;;;;;;18.30;19.93;98260.59;4988604;28;20089;-68
2022/05/23 06:49:39;;;;;;;2.95;2.08;;;;;;;18.69;19.41;98267.81;4988692;28;20419;-68
2022/05/23 06:52:25;;;;;;;9.85;2.30;;;;;;;18.84;19.47;98259.97;4985750;28;20487;-68
2022/05/23 06:55:04;;;;;;;6.65;1.92;;;;;;;19.19;19.22;98260.53;4987816;28;20104;-69
2022/05/23 06:57:37;;;;;;;3.65;1.83;;;;;;;19.70;18.61;98256.72;4973241;28;20050;-68
2022/05/23 07:00:09;;;;;;;6.18;2.08;;;;;;;20.24;18.09;98254.97;4987498;28;20484;-70
2022/05/23 07:02:36;;;;;;;6.97;2.10;;;;;;;20.61;17.56;98242.41;4988658;28;20050;-69
2022/05/23 07:13:38;;;;;;;6.65;2.45;;;;;;;22.10;16.53;98233.72;4988045;28;20042;-70
2022/05/23 07:16:05;;;;;;;4.70;2.40;;;;;;;22.52;15.84;98236.28;4972079;28;20053;-68
2022/05/23 07:18:32;;;;;;;7.75;1.80;;;;;;;23.13;15.70;98227.09;4988297;28;20062;-69
2022/05/23 07:20:59;;;;;;;4.18;2.28;;;;;;;23.73;14.71;98235.13;4972007;28;20046;-69
2022/05/23 07:23:28;;;;;;;2.67;2.20;;;;;;;24.59;13.90;98240.97;4988130;28;20812;-69
2022/05/23 07:26:06;;;;;;;5.57;2.05;;;;;;;25.90;12.92;98214.25;4988242;28;20145;-69
2022/05/23 07:28:48;;;;;;;11.55;2.42;;;;;;;27.93;11.47;98227.91;4987911;28;20042;-69
2022/05/23 07:31:16;;;;;;;6.43;2.00;;;;;;;29.66;10.29;98233.41;4988054;28;20042;-69
2022/05/23 07:33:43;;;;;;;9.07;2.00;;;;;;;31.24;9.22;98229.94;4988573;28;20538;-69
2022/05/23 07:36:20;;;;;;;5.47;1.73;;;;;;;31.92;8.80;98216.03;4988400;28;20078;-71
2022/05/23 07:38:46;;;;;;;4.88;1.77;;;;;;;33.68;7.36;98226.28;4988335;28;20097;-70
2022/05/23 07:41:32;;;;;;;8.60;2.33;;;;;;;35.41;6.60;98219.44;4964831;28;20570;-70
2022/05/23 07:43:59;;;;;;;7.18;1.80;;;;;;;34.99;6.29;98232.06;4972184;28;20066;-69
2022/05/23 07:46:26;;;;;;;5.28;1.90;;;;;;;34.44;6.74;98226.44;4972266;28;20057;-69
2022/05/23 07:48:52;;;;;;;7.55;1.92;;;;;;;35.69;5.93;98200.03;4988138;28;20122;-70
2022/05/23 07:51:22;;;;;;;5.60;1.95;;;;;;;36.80;4.91;98198.34;4995477;28;20172;-70
2022/05/23 08:02:49;;;;;;;4.93;1.83;;;;;;;42.26;2.66;98202.78;5017963;28;20531;-71
2022/05/23 08:05:22;;;;;;;3.85;1.60;;;;;;;42.86;2.71;98197.88;4976361;28;20182;-71
2022/05/23 08:07:51;;;;;;;3.30;1.63;;;;;;;43.17;2.21;98177.38;5007078;28;20065;-71
2022/05/23 08:10:20;;;;;;;4.87;1.90;;;;;;;43.58;1.74;98175.53;4992305;28;20124;-71
2022/05/23 08:12:52;;;;;;;9.63;1.63;;;;;;;44.03;1.83;98184.78;4961993;28;20479;-71
2022/05/23 08:15:20;;;;;;;10.93;1.90;;;;;;;44.37;1.49;98180.88;5010474;28;20149;-72
2022/05/23 08:17:50;;;;;;;3.08;1.40;;;;;;;45.02;1.32;98167.72;5010649;28;20096;-71
2022/05/23 08:20:28;;;;;;;8.27;1.80;;;;;;;45.70;1.10;98181.13;5010811;28;20406;-72
2022/05/23 08:22:55;;;;;;;12.70;1.60;;;;;;;45.89;1.28;98172.03;4994554;28;20042;-71
2022/05/23 08:25:46;;;;;;;7.30;1.67;;;;;;;45.69;0.69;98171.13;5011222;28;20100;-71
2022/05/23 08:28:11;;;;;;;3.25;1.23;;;;;;;45.06;1.16;98168.47;5010354;28;20503;-70
2022/05/23 08:30:38;;;;;;;6.28;1.33;;;;;;;45.38;0.96;98171.63;5027208;28;20042;-71
2022/05/23 08:33:29;;;;;;;5.57;1.35;;;;;;;44.38;1.34;98153.69;4996569;28;20046;-71
2022/05/23 08:36:13;;;;;;;3.45;1.30;;;;;;;44.22;1.40;98164.59;5010334;28;20045;-71
2022/05/23 08:38:39;;;;;;;18.05;1.58;;;;;;;44.86;1.41;98136.69;5012101;28;20045;-71
2022/05/23 08:41:15;;;;;;;3.63;1.23;;;;;;;45.46;1.05;98154.28;4994842;28;20046;-71
2022/05/23 08:43:56;;;;;;;2.75;1.33;;;;;;;45.67;1.11;98147.53;4994619;28;20483;-71
2022/05/23 08:46:31;;;;;;;4.00;1.45;;;;;;;46.14;0.59;98135.91;5010453;28;20046;-71
2022/05/23 08:49:22;;;;;;;3.70;1.42;;;;;;;45.30;0.84;98148.50;4978714;28;20041;-71
2022/05/23 08:51:57;;;;;;;7.32;2.75;;;;;;;45.00;1.18;98144.91;5008100;28;20053;-71
2022/05/23 08:54:28;;;;;;;8.18;4.38;;;;;;;43.92;1.41;98116.94;5010446;28;20057;-71
2022/05/23 08:57:51;;;;;;;9.82;1.90;;;;;;;45.16;1.03;98153.50;5011670;28;20171;-71
2022/05/23 09:00:24;;;;;;;5.00;1.40;;;;;;;45.22;1.11;98149.81;4990454;28;20050;-70
2022/05/23 09:02:59;;;;;;;5.05;1.67;;;;;;;45.43;0.94;98143.09;4995734;28;20046;-72
2022/05/23 09:05:34;;;;;;;4.38;1.13;;;;;;;44.75;0.91;98136.03;5011849;28;20483;-71
2022/05/23 09:08:06;;;;;;;7.70;1.17;;;;;;;45.07;1.04;98134.44;4979992;28;20064;-72
2022/05/23 09:10:39;;;;;;;7.63;1.55;;;;;;;45.79;0.75;98144.16;4996188;28;20470;-71
2022/05/23 09:13:07;;;;;;;9.82;1.98;;;;;;;46.59;0.57;98136.25;5010650;28;20077;-71
2022/05/23 09:15:33;;;;;;;3.00;1.50;;;;;;;47.09;0.22;98141.59;5010417;28;20137;-71
2022/05/23 09:18:03;;;;;;;2.55;1.30;;;;;;;47.04;0.10;98144.97;5009508;28;20129;-72
2022/05/23 09:20:46;;;;;;;5.07;1.30;;;;;;;47.79;0.00;98142.00;5010645;28;20042;-72
2022/05/23 09:23:33;;;;;;;5.45;1.00;;;;;;;46.83;0.14;98140.56;5008314;28;20049;-71
2022/05/23 09:26:15;;;;;;;5.07;1.27;;;;;;;46.72;0.25;98133.59;5025042;28;20053;-71
2022/05/23 09:28:41;;;;;;;2.45;1.20;;;;;;;46.49;0.52;98111.97;4992977;28;20041;-71
2022/05/23 09:31:18;;;;;;;2.38;1.35;;;;;;;47.14;0.11;98125.03;4992839;28;20042;-72
2022/05/23 09:33:48;;;;;;;9.55;1.50;;;;;;;47.28;0.45;98130.34;5009645;28;20100;-72
2022/05/23 09:36:25;;;;;;;5.38;1.30;;;;;;;46.37;0.34;98125.84;5009294;28;20065;-73
2022/05/23 09:38:50;;;;;;;6.47;1.40;;;;;;;45.98;0.65;98110.50;4993742;28;20053;-72
2022/05/23 09:50:07;;;;;;;4.60;1.13;;;;;;;46.35;0.33;98112.22;4990428;28;20050;-72
2022/05/23 09:53:02;;;;;;;7.72;1.45;;;;;;;46.46;0.14;98101.56;5004812;28;20050;-72
2022/05/23 09:55:33;;;;;;;9.13;2.05;;;;;;;46.80;0.11;98116.13;5003038;28;20149;-71
2022/05/23 09:58:03;;;;;;;8.00;1.48;;;;;;;47.03;0.00;98093.56;4972999;28;20043;-72
2022/05/23 10:00:40;;;;;;;6.85;1.50;;;;;;;47.26;0.00;98101.06;4972989;28;20496;-72
2022/05/23 10:03:19;;;;;;;2.58;1.20;;;;;;;46.93;0.30;98102.22;4973142;28;20054;-72
2022/05/23 10:05:50;;;;;;;6.43;1.40;;;;;;;46.20;0.46;98108.13;5005253;28;20085;-72
2022/05/23 10:08:30;;;;;;;5.72;1.60;;;;;;;45.97;0.57;98108.94;5004636;28;20459;-72
2022/05/23 10:11:04;;;;;;;8.05;2.13;;;;;;;46.40;0.40;98105.31;4989326;28;20050;-72
2022/05/23 10:13:39;;;;;;;6.43;1.40;;;;;;;46.74;0.17;98091.78;4988665;28;20038;-74
2022/05/23 10:16:16;;;;;;;7.57;1.77;;;;;;;46.28;0.61;98106.75;4988337;28;20049;-72
2022/05/23 10:18:46;;;;;;;8.60;1.65;;;;;;;46.65;0.33;98097.19;4972951;28;20570;-72
2022/05/23 10:21:34;;;;;;;5.28;2.00;;;;;;;46.93;0.30;98086.16;4972428;28;20050;-72
2022/05/23 10:24:08;;;;;;;4.82;1.83;;;;;;;47.38;0.00;98081.47;4988822;28;20623;-72
2022/05/23 10:27:01;;;;;;;9.00;2.72;;;;;;;47.16;0.19;98110.53;4988614;28;20050;-69
2022/05/23 10:30:00;;;;;;;3.42;1.90;;;;;;;47.45;0.23;98083.31;5005466;28;20074;-72
2022/05/23 10:32:35;;;;;;;;;;;;;;;46.62;0.36;98090.44;4973236;28;20478;-72
2022/05/23 10:35:07;;;;;;;7.00;2.50;;;;;;;45.87;0.39;98079.03;4972097;28;20395;-72
2022/05/23 10:37:36;;;;;;;5.97;1.65;;;;;;;44.10;1.31;98076.34;4988503;28;20105;-73
2022/05/23 10:43:12;;;;;;;4.93;1.67;;;;;;;41.55;1.93;98070.91;5002822;28;20050;-72
2022/05/23 10:45:46;;;;;;;4.88;2.40;;;;;;;41.15;2.30;98088.81;4988212;28;20042;-72
2022/05/23 10:48:15;;;;;;;5.43;1.60;;;;;;;41.66;2.19;98085.66;4989608;28;20053;-72
2022/05/23 10:50:41;;;;;;;8.05;1.40;;;;;;;42.26;1.94;98063.25;4989935;28;20035;-72
2022/05/23 10:53:24;;;;;;;6.50;1.27;;;;;;;43.10;1.41;98080.41;4971782;28;20365;-73
2022/05/23 10:56:01;;;;;;;3.28;1.30;;;;;;;43.09;1.33;98070.44;5004139;28;20169;-72
2022/05/23 10:58:31;;;;;;;3.88;1.55;;;;;;;42.74;1.50;98081.81;4988200;28;20100;-73
2022/05/23 11:01:23;;;;;;;7.30;2.00;;;;;;;42.23;1.83;98081.56;4989891;28;20527;-72
2022/05/23 11:03:49;;;;;;;11.93;2.90;;;;;;;41.35;1.97;98067.72;4970047;28;20125;-73
2022/05/23 11:06:28;;;;;;;7.88;2.00;;;;;;;40.26;2.79;98080.53;4972970;28;20062;-76
2022/05/23 11:09:29;;;;;;;5.75;1.70;;;;;;;38.90;3.15;98055.19;4957076;28;20077;-72
2022/05/23 11:12:25;;;;;;;6.40;1.45;;;;;;;36.53;4.26;98051.91;4971597;28;20046;-72
2022/05/23 11:15:28;;;;;;;7.85;1.52;;;;;;;34.00;5.73;98086.81;4988496;28;20453;-72
2022/05/23 11:18:13;;;;;;;10.02;1.60;;;;;;;32.39;6.35;98080.16;4988386;28;20042;-73
2022/05/23 11:20:41;;;;;;;14.75;1.83;;;;;;;31.29;6.89;98075.31;4988183;28;20104;-73
2022/05/23 11:23:47;;;;;;;4.03;1.60;;;;;;;31.10;7.18;98081.22;4972054;28;20046;-72
2022/05/23 11:26:51;;;;;;;2.90;1.60;;;;;;;30.68;7.36;98065.66;4984721;28;20064;-72
2022/05/23 11:35:06;;;;;;;6.68;1.75;;;;;;;28.42;9.04;98049.59;4985528;28;20045;-73
2022/05/23 11:37:45;;;;;;;9.57;1.90;;;;;;;27.89;9.66;98063.97;4988532;28;20057;-72
2022/05/23 11:40:38;;;;;;;5.82;1.60;;;;;;;27.58;9.90;98076.66;4987984;28;20066;-72
2022/05/23 11:43:09;;;;;;;8.80;2.15;;;;;;;27.06;10.11;98065.41;4928389;28;20054;-73
2022/05/23 11:48:43;;;;;;;8.35;1.80;;;;;;;26.76;10.33;98072.25;4993475;28;20078;-72
2022/05/23 11:51:30;;;;;;;6.80;2.10;;;;;;;26.44;10.44;98056.72;4959772;28;20046;-72
2022/05/23 11:53:57;;;;;;;7.57;1.85;;;;;;;26.01;10.70;98054.41;4993441;28;20084;-72
2022/05/23 11:56:47;;;;;;;4.15;1.60;;;;;;;26.11;11.22;98048.81;4992976;28;20058;-72
2022/05/23 11:59:32;;;;;;;8.60;1.85;;;;;;;25.99;10.92;98068.31;4975246;28;20451;-72
2022/05/23 12:02:11;;;;;;;5.57;1.85;;;;;;;25.83;10.89;98064.16;4975987;28;20050;-72
2022/05/23 12:04:49;;;;;;;7.75;1.60;;;;;;;25.59;10.72;98040.84;4991559;28;20050;-71
2022/05/23 12:07:37;;;;;;;7.32;1.58;;;;;;;25.60;11.14;98056.88;4992096;28;20156;-70
2022/05/23 12:10:21;;;;;;;3.38;1.55;;;;;;;25.60;10.85;98064.25;4959145;28;20041;-71
2022/05/23 12:12:56;;;;;;;7.18;1.58;;;;;;;25.54;11.25;98073.56;4990633;28;20046;-72
2022/05/23 12:15:44;;;;;;;6.47;1.88;;;;;;;25.39;11.56;98069.13;4959203;28;20046;-75
2022/05/23 12:18:22;;;;;;;5.47;1.70;;;;;;;24.79;12.11;98051.59;4991308;28;20042;-73
2022/05/23 12:20:52;;;;;;;2.60;1.40;;;;;;;24.74;12.30;98056.25;4990793;28;20046;-74
2022/05/23 12:23:29;;;;;;;7.45;2.17;;;;;;;24.68;12.32;98089.97;5005698;28;20507;-73
2022/05/23 12:26:12;;;;;;;5.63;2.35;;;;;;;24.56;12.07;98065.91;4972889;28;20097;-73
2022/05/23 12:28:44;;;;;;;8.40;1.70;;;;;;;24.43;12.46;98077.41;4990728;28;20145;-73
2022/05/23 12:31:13;;;;;;;6.50;2.20;;;;;;;24.19;12.43;98071.09;4972437;28;20053;-72
2022/05/23 12:33:43;;;;;;;21.63;2.28;;;;;;;24.12;12.30;98086.91;4973258;28;20460;-72
2022/05/23 12:36:11;;;;;;;9.88;2.63;;;;;;;24.09;12.26;98081.22;5006771;28;20072;-72
2022/05/23 12:39:15;;;;;;;9.80;2.00;;;;;;;24.16;12.47;98070.84;4991451;28;20050;-72
2022/05/23 12:41:40;;;;;;;12.65;2.83;;;;;;;23.91;12.40;98084.56;4955949;28;20406;-72
2022/05/23 12:45:01;;;;;;;10.45;3.22;;;;;;;24.25;12.46;98069.16;4990683;28;20586;-72
2022/05/23 12:47:47;;;;;;;4.60;1.55;;;;;;;23.95;12.46;98078.31;4920257;29;20429;-71
2022/05/23 12:50:40;;;;;;;4.72;1.60;;;;;;;23.96;12.60;98062.84;4974828;28;20046;-72
2022/05/23 12:53:33;;;;;;;4.93;1.30;;;;;;;23.82;12.84;98064.56;4991925;28;20073;-73
2022/05/23 12:56:05;;;;;;;4.03;1.80;;;;;;;23.90;12.78;98066.66;4973301;28;20616;-72
2022/05/23 12:58:41;;;;;;;2.42;1.60;;;;;;;23.77;13.07;98059.16;4990111;28;20061;-72
2022/05/23 13:01:09;;;;;;;8.15;1.50;;;;;;;23.73;13.05;98061.63;4990484;28;20046;-72
2022/05/23 13:03:47;;;;;;;15.55;3.03;;;;;;;23.86;12.76;98061.00;4958888;28;20046;-72
2022/05/23 13:06:31;;;;;;;7.53;2.60;;;;;;;23.88;12.62;98052.59;4974599;28;20046;-72
2022/05/23 13:09:07;;;;;;;9.35;3.55;;;;;;;23.74;13.34;98032.63;4955584;28;20049;-72
2022/05/23 13:11:37;;;;;;;6.15;1.65;;;;;;;23.47;13.30;98045.78;4990281;28;20085;-71
2022/05/23 13:14:03;;;;;;;4.43;1.48;;;;;;;23.28;13.10;98048.31;4990582;28;20251;-72
2022/05/23 13:16:36;;;;;;;6.13;1.42;;;;;;;22.64;13.48;97982.44;5006048;28;20081;-73
2022/05/23 13:22:05;;;;;;;3.92;1.50;;;;;;;23.12;13.52;98039.44;4992547;28;20092;-72